createdAt,value
2019-05-06T00:02:07.907Z,101127.34
2019-05-06T00:04:38.280Z,101126.23
2019-05-06T00:07:09.359Z,101126.73
2019-05-06T00:09:39.631Z,101122.44
2019-05-06T00:12:10.515Z,101119.22
2019-05-06T00:14:40.744Z,101119.80
2019-05-06T00:17:14.452Z,101116.69
2019-05-06T00:19:44.831Z,101118.28
2019-05-06T00:22:15.161Z,101117.61
2019-05-06T00:24:55.002Z,101115.81
2019-05-06T00:27:34.340Z,101112.31
2019-05-06T00:30:05.016Z,101108.73
2019-05-06T00:32:35.598Z,101110.98
2019-05-06T00:35:06.821Z,101114.89
2019-05-06T00:37:37.844Z,101114.03
2019-05-06T00:40:15.927Z,101108.34
2019-05-06T00:42:54.216Z,101108.34
2019-05-06T00:45:24.991Z,101100.86
2019-05-06T00:47:55.971Z,101093.70
2019-05-06T00:50:26.422Z,101098.89
2019-05-06T00:52:58.219Z,101096.24
2019-05-06T00:55:29.023Z,101091.73
2019-05-06T00:57:59.468Z,101087.94
2019-05-06T01:00:33.724Z,101090.34
2019-05-06T01:03:04.420Z,101086.15
2019-05-06T01:05:37.469Z,101090.47
2019-05-06T01:08:07.805Z,101081.05
2019-05-06T01:10:39.153Z,101087.93
2019-05-06T01:13:32.111Z,101069.14
2019-05-06T01:16:04.229Z,101072.11
2019-05-06T01:18:36.059Z,101072.44
2019-05-06T01:21:14.553Z,101069.67
2019-05-06T01:23:45.595Z,101066.09
2019-05-06T01:26:16.558Z,101076.83
2019-05-06T01:28:55.910Z,101072.78
2019-05-06T01:31:39.836Z,101070.98
2019-05-06T01:33:58.330Z,101061.44
2019-05-06T01:36:29.257Z,101060.72
2019-05-06T01:39:21.665Z,101058.00
2019-05-06T01:42:04.284Z,101064.16
2019-05-06T01:44:34.392Z,101060.72
2019-05-06T01:47:04.736Z,101062.91
2019-05-06T01:49:35.165Z,101056.28
2019-05-06T01:52:06.122Z,101057.01
2019-05-06T01:54:36.437Z,101051.39
2019-05-06T01:57:06.741Z,101048.74
2019-05-06T01:59:38.056Z,101043.37
2019-05-06T02:02:08.785Z,101046.48
2019-05-06T02:04:39.530Z,101042.83
2019-05-06T02:07:09.748Z,101043.26
2019-05-06T02:09:40.586Z,101041.47
2019-05-06T02:12:10.890Z,101042.41
2019-05-06T02:14:43.506Z,101047.70
2019-05-06T02:17:14.366Z,101042.41
2019-05-06T02:19:45.240Z,101049.45
2019-05-06T02:22:24.757Z,101053.78
2019-05-06T02:24:59.018Z,101049.27
2019-05-06T02:27:29.230Z,101052.31
2019-05-06T02:30:17.227Z,101046.55
2019-05-06T02:33:06.514Z,101041.64
2019-05-06T02:35:45.379Z,101042.89
2019-05-06T02:38:39.284Z,101033.97
2019-05-06T02:41:03.532Z,101039.78
2019-05-06T02:43:34.813Z,101039.44
2019-05-06T02:46:05.211Z,101034.81
2019-05-06T02:48:50.272Z,101035.83
2019-05-06T02:51:24.487Z,101035.64
2019-05-06T02:53:55.025Z,101032.98
2019-05-06T02:56:26.306Z,101034.36
2019-05-06T02:58:56.685Z,101031.62
2019-05-06T03:01:26.994Z,101024.59
2019-05-06T03:03:57.419Z,101023.55
2019-05-06T03:06:28.819Z,101026.42
2019-05-06T03:08:59.606Z,101020.89
2019-05-06T03:11:32.982Z,101015.34
2019-05-06T03:14:03.298Z,101006.73
2019-05-06T03:16:34.217Z,101007.66
2019-05-06T03:19:04.486Z,101006.75
2019-05-06T03:21:45.044Z,101009.30
2019-05-06T03:24:33.786Z,101006.56
2019-05-06T03:27:07.813Z,101006.19
2019-05-06T03:29:38.259Z,101002.69
2019-05-06T03:32:08.624Z,101012.16
2019-05-06T03:35:01.071Z,101004.48
2019-05-06T03:37:16.955Z,101006.78
2019-05-06T03:39:44.253Z,100998.98
2019-05-06T03:42:16.674Z,100991.70
2019-05-06T03:44:57.737Z,100997.07
2019-05-06T03:47:44.406Z,100989.13
2019-05-06T03:50:15.155Z,100987.55
2019-05-06T03:52:46.570Z,100992.86
2019-05-06T03:55:23.476Z,100985.30
2019-05-06T03:57:55.710Z,100993.02
2019-05-06T04:00:26.290Z,100997.34
2019-05-06T04:02:56.606Z,100988.34
2019-05-06T04:05:27.896Z,100996.67
2019-05-06T04:07:58.426Z,100999.72
2019-05-06T04:10:29.141Z,100995.20
2019-05-06T04:13:04.184Z,100995.33
2019-05-06T04:15:54.030Z,100985.27
2019-05-06T04:18:25.359Z,100984.92
2019-05-06T04:21:24.318Z,100987.15
2019-05-06T04:24:04.119Z,100982.70
2019-05-06T04:26:49.718Z,100985.08
2019-05-06T04:29:23.373Z,100972.61
2019-05-06T04:31:54.085Z,100978.02
2019-05-06T04:34:25.182Z,100980.91
2019-05-06T04:36:55.827Z,100980.44
2019-05-06T04:39:26.050Z,100983.44
2019-05-06T04:41:56.409Z,100979.30
2019-05-06T04:44:26.808Z,100980.47
2019-05-06T04:46:57.398Z,100974.10
2019-05-06T04:49:27.919Z,100981.27
2019-05-06T04:51:58.714Z,100978.34
2019-05-06T04:54:29.313Z,100977.26
2019-05-06T04:57:00.063Z,100978.60
2019-05-06T04:59:32.587Z,100974.39
2019-05-06T05:02:02.838Z,100977.61
2019-05-06T05:04:36.696Z,100980.48
2019-05-06T05:07:05.854Z,100983.06
2019-05-06T05:09:36.651Z,100996.25
2019-05-06T05:12:16.576Z,100996.72
2019-05-06T05:15:11.890Z,101002.58
2019-05-06T05:17:52.561Z,100999.23
2019-05-06T05:20:36.077Z,100999.23
2019-05-06T05:22:55.480Z,100994.01
2019-05-06T05:25:26.598Z,100997.35
2019-05-06T05:27:57.188Z,101002.19
2019-05-06T05:30:27.930Z,100997.80
2019-05-06T05:32:58.619Z,100999.45
2019-05-06T05:35:28.905Z,101001.86
2019-05-06T05:37:59.209Z,100998.33
2019-05-06T05:40:29.464Z,100998.25
2019-05-06T05:43:11.729Z,100997.78
2019-05-06T05:45:42.595Z,100998.72
2019-05-06T05:48:26.041Z,101001.59
2019-05-06T05:50:58.606Z,101003.30
2019-05-06T05:53:29.555Z,101014.78
2019-05-06T05:56:02.552Z,101007.92
2019-05-06T05:58:34.793Z,101002.34
2019-05-06T06:01:16.967Z,101004.60
2019-05-06T06:03:48.586Z,100997.22
2019-05-06T06:06:18.982Z,101008.69
2019-05-06T06:08:52.335Z,101003.26
2019-05-06T06:11:38.814Z,101009.50
2019-05-06T06:14:27.994Z,101005.98
2019-05-06T06:17:17.189Z,101007.63
2019-05-06T06:19:55.632Z,101007.42
2019-05-06T06:22:27.777Z,101010.02
2019-05-06T06:24:58.093Z,101010.58
2019-05-06T06:27:33.100Z,100998.62
2019-05-06T06:30:03.519Z,101003.95
2019-05-06T06:32:34.196Z,101005.08
2019-05-06T06:35:32.622Z,101005.93
2019-05-06T06:38:12.431Z,101002.48
2019-05-06T06:40:43.072Z,101001.66
2019-05-06T06:43:18.522Z,101007.98
2019-05-06T06:45:48.807Z,101005.98
2019-05-06T06:48:19.828Z,101008.96
2019-05-06T06:50:52.222Z,101008.50
2019-05-06T06:53:22.648Z,101002.28
2019-05-06T06:55:55.099Z,100995.81
2019-05-06T06:58:32.286Z,100997.70
2019-05-06T07:01:29.146Z,101002.47
2019-05-06T07:04:10.044Z,101004.28
2019-05-06T07:06:42.191Z,100994.76
2019-05-06T07:09:13.140Z,100999.36
2019-05-06T07:11:43.409Z,100988.96
2019-05-06T07:14:13.842Z,100989.34
2019-05-06T07:16:44.644Z,100987.12
2019-05-06T07:19:18.311Z,100983.75
2019-05-06T07:21:58.222Z,100992.92
2019-05-06T07:24:29.365Z,100985.03
2019-05-06T07:27:12.661Z,100983.80
2019-05-06T07:29:48.285Z,100987.94
2019-05-06T07:32:14.990Z,100988.73
2019-05-06T07:34:46.573Z,100984.59
2019-05-06T07:37:16.874Z,100987.41
2019-05-06T07:39:47.505Z,100982.94
2019-05-06T07:42:23.707Z,100987.05
2019-05-06T07:45:25.413Z,100990.89
2019-05-06T07:48:03.535Z,100992.63
2019-05-06T07:50:34.529Z,100997.27
2019-05-06T07:53:08.293Z,100994.59
2019-05-06T07:55:42.233Z,100991.38
2019-05-06T07:58:13.766Z,100996.58
2019-05-06T08:00:44.333Z,101012.23
2019-05-06T08:03:14.607Z,101028.89
2019-05-06T08:05:55.204Z,101029.73
2019-05-06T08:08:17.246Z,101006.52
2019-05-06T08:10:47.918Z,101010.68
2019-05-06T08:13:23.359Z,101006.28
2019-05-06T08:15:53.911Z,101009.19
2019-05-06T08:18:25.995Z,101008.20
2019-05-06T08:20:58.452Z,101003.99
2019-05-06T08:23:42.767Z,100997.70
2019-05-06T08:26:17.591Z,100994.28
2019-05-06T08:28:47.282Z,100996.58
2019-05-06T08:31:22.136Z,100986.95
2019-05-06T08:33:52.692Z,100995.09
2019-05-06T08:36:38.313Z,100991.69
2019-05-06T08:39:13.049Z,100974.19
2019-05-06T08:41:44.035Z,100974.53
2019-05-06T08:44:17.643Z,100971.47
2019-05-06T08:46:48.344Z,100970.23
2019-05-06T08:49:18.532Z,100981.67
2019-05-06T08:52:02.388Z,100971.55
2019-05-06T08:54:37.949Z,100973.85
2019-05-06T08:57:11.957Z,100973.78
2019-05-06T08:59:42.507Z,100978.23
2019-05-06T09:02:13.772Z,100972.70
2019-05-06T09:04:45.086Z,100993.45
2019-05-06T09:07:15.703Z,101005.27
2019-05-06T09:09:46.444Z,101008.71
2019-05-06T09:12:16.919Z,101011.41
2019-05-06T09:14:47.502Z,101021.91
2019-05-06T09:17:17.723Z,101012.02
2019-05-06T09:19:49.045Z,101010.69
2019-05-06T09:22:19.611Z,101007.91
2019-05-06T09:24:50.259Z,101000.55
2019-05-06T09:27:42.114Z,101016.68
2019-05-06T09:30:22.927Z,101007.45
2019-05-06T09:32:53.776Z,101016.69
2019-05-06T09:35:24.373Z,101019.28
2019-05-06T09:37:55.068Z,101016.86
2019-05-06T09:40:25.988Z,101014.92
2019-05-06T09:42:58.367Z,101011.33
2019-05-06T09:45:28.705Z,101008.73
2019-05-06T09:48:12.841Z,101004.59
2019-05-06T09:50:46.577Z,101000.18
2019-05-06T09:53:53.107Z,100997.96
2019-05-06T09:56:33.858Z,100994.62
2019-05-06T09:59:06.666Z,100986.19
2019-05-06T10:01:38.311Z,100986.19
2019-05-06T10:04:09.112Z,100986.37
2019-05-06T10:06:54.971Z,100987.03
2019-05-06T10:09:15.837Z,100989.82
2019-05-06T10:11:45.037Z,100983.05
2019-05-06T10:14:15.776Z,100992.58
2019-05-06T10:16:47.452Z,100982.56
2019-05-06T10:19:17.728Z,100988.14
2019-05-06T10:21:48.462Z,100985.41
2019-05-06T10:24:19.008Z,100982.34
2019-05-06T10:26:54.483Z,100988.02
2019-05-06T10:29:43.409Z,100981.59
2019-05-06T10:32:36.010Z,100997.27
2019-05-06T10:35:07.653Z,100989.53
2019-05-06T10:38:00.016Z,100991.58
2019-05-06T10:40:34.514Z,100991.58
2019-05-06T10:43:32.672Z,100988.88
2019-05-06T10:46:04.186Z,100984.24
2019-05-06T10:48:34.885Z,100973.77
2019-05-06T10:51:32.491Z,100984.54
2019-05-06T10:54:03.133Z,100984.12
2019-05-06T10:56:57.320Z,100991.66
2019-05-06T10:59:27.174Z,100990.48
2019-05-06T11:02:02.549Z,100990.27
2019-05-06T11:04:34.162Z,101016.54
2019-05-06T11:07:04.447Z,101020.77
2019-05-06T11:09:35.707Z,101024.05
2019-05-06T11:12:05.921Z,101024.61
2019-05-06T11:14:36.191Z,101028.71
2019-05-06T11:17:06.558Z,101031.91
2019-05-06T11:19:36.893Z,101024.89
2019-05-06T11:22:07.599Z,101027.23
2019-05-06T11:24:39.323Z,101031.11
2019-05-06T11:27:25.223Z,101021.50
2019-05-06T11:29:44.373Z,101028.77
2019-05-06T11:32:34.065Z,101015.38
2019-05-06T11:35:16.483Z,101012.52
2019-05-06T11:37:55.564Z,101012.52
2019-05-06T11:40:26.785Z,101006.17
2019-05-06T11:42:57.923Z,101003.91
2019-05-06T11:45:28.137Z,101018.20
2019-05-06T11:47:59.532Z,101008.71
2019-05-06T11:50:30.842Z,101028.09
2019-05-06T11:53:02.489Z,101027.41
2019-05-06T11:55:38.612Z,101028.36
2019-05-06T11:58:07.610Z,101016.64
2019-05-06T12:00:44.226Z,101014.13
2019-05-06T12:03:14.968Z,101027.75
2019-05-06T12:05:45.482Z,101010.64
2019-05-06T12:08:17.923Z,101002.47
2019-05-06T12:10:48.556Z,101002.47
2019-05-06T12:13:18.978Z,101018.70
2019-05-06T12:15:49.469Z,101022.75
2019-05-06T12:18:22.931Z,101013.44
2019-05-06T12:20:52.827Z,101012.95
2019-05-06T12:23:24.461Z,101020.44
2019-05-06T12:25:54.758Z,101025.44
2019-05-06T12:28:25.302Z,101031.62
2019-05-06T12:30:55.930Z,101013.57
2019-05-06T12:33:35.525Z,101013.57
2019-05-06T12:36:21.830Z,101030.50
2019-05-06T12:39:15.894Z,101030.50
2019-05-06T12:42:09.086Z,101026.38
2019-05-06T12:44:40.994Z,101034.46
2019-05-06T12:47:48.728Z,101023.94
2019-05-06T12:50:19.587Z,101023.29
2019-05-06T12:52:52.360Z,101024.46
2019-05-06T12:55:25.249Z,101030.53
2019-05-06T12:57:55.861Z,101040.05
2019-05-06T13:00:28.128Z,101029.42
2019-05-06T13:02:58.965Z,101032.88
2019-05-06T13:05:31.573Z,101030.28
2019-05-06T13:08:05.080Z,101039.27
2019-05-06T13:10:35.551Z,101039.27
2019-05-06T13:13:06.219Z,101043.49
2019-05-06T13:15:36.761Z,101047.48
2019-05-06T13:18:07.738Z,101048.98
2019-05-06T13:20:38.133Z,101051.17
2019-05-06T13:23:21.340Z,101045.94
2019-05-06T13:25:47.981Z,101053.87
2019-05-06T13:28:25.339Z,101045.36
2019-05-06T13:30:56.172Z,101041.11
2019-05-06T13:33:35.589Z,101041.11
2019-05-06T13:36:06.090Z,101051.98
2019-05-06T13:38:36.469Z,101051.98
2019-05-06T13:41:06.872Z,101050.20
2019-05-06T13:43:45.435Z,101044.86
2019-05-06T13:46:23.178Z,101044.86
2019-05-06T13:49:13.521Z,101054.72
2019-05-06T13:51:52.464Z,101052.88
2019-05-06T13:54:23.625Z,101037.35
2019-05-06T13:56:53.955Z,101027.02
2019-05-06T13:59:24.321Z,101042.52
2019-05-06T14:02:16.413Z,101043.84
2019-05-06T14:04:47.534Z,101044.42
2019-05-06T14:07:17.905Z,101049.78
2019-05-06T14:09:48.222Z,101044.73
2019-05-06T14:12:18.555Z,101044.73
2019-05-06T14:14:49.474Z,101046.41
2019-05-06T14:17:22.181Z,101046.00
2019-05-06T14:19:53.592Z,101059.39
2019-05-06T14:22:24.036Z,101059.39
2019-05-06T14:25:15.465Z,101052.95
2019-05-06T14:27:48.033Z,101064.38
2019-05-06T14:30:39.394Z,101050.31
2019-05-06T14:33:12.700Z,101061.89
2019-05-06T14:35:43.640Z,101061.84
2019-05-06T14:38:14.271Z,101064.30
2019-05-06T14:41:19.397Z,101069.50
2019-05-06T14:43:50.538Z,101057.39
2019-05-06T14:46:22.844Z,101051.98
2019-05-06T14:48:53.587Z,101051.10
2019-05-06T14:51:24.719Z,101040.31
2019-05-06T14:53:55.027Z,101048.23
2019-05-06T14:56:38.436Z,101051.38
2019-05-06T14:59:09.214Z,101053.85
2019-05-06T15:01:45.133Z,101053.89
2019-05-06T15:04:12.763Z,101056.95
2019-05-06T15:06:43.585Z,101059.59
2019-05-06T15:09:14.004Z,101054.83
2019-05-06T15:11:44.344Z,101052.62
2019-05-06T15:14:15.582Z,101061.55
2019-05-06T15:16:46.195Z,101059.03
2019-05-06T15:19:16.929Z,101064.34
2019-05-06T15:21:47.384Z,101052.14
2019-05-06T15:24:21.255Z,101052.14
2019-05-06T15:26:52.141Z,101064.32
2019-05-06T15:29:23.717Z,101060.10
2019-05-06T15:32:12.982Z,101065.77
2019-05-06T15:34:48.547Z,101071.92
2019-05-06T15:37:24.773Z,101079.62
2019-05-06T15:39:55.047Z,101074.59
2019-05-06T15:42:26.123Z,101072.55
2019-05-06T15:44:57.263Z,101067.18
2019-05-06T15:47:27.630Z,101071.00
2019-05-06T15:49:57.918Z,101074.40
2019-05-06T15:52:32.308Z,101071.30
2019-05-06T15:55:03.370Z,101074.33
2019-05-06T15:57:34.070Z,101074.33
2019-05-06T16:00:04.749Z,101074.05
2019-05-06T16:02:35.190Z,101069.06
2019-05-06T16:05:12.476Z,101072.48
2019-05-06T16:07:38.329Z,101075.10
2019-05-06T16:10:09.503Z,101068.78
2019-05-06T16:12:41.838Z,101072.65
2019-05-06T16:15:12.987Z,101066.00
2019-05-06T16:17:43.411Z,101065.27
2019-05-06T16:20:14.275Z,101068.16
2019-05-06T16:22:46.636Z,101070.00
2019-05-06T16:25:17.108Z,101071.69
2019-05-06T16:27:52.156Z,101074.41
2019-05-06T16:30:24.481Z,101068.98
2019-05-06T16:32:56.130Z,101080.38
2019-05-06T16:35:26.382Z,101070.02
2019-05-06T16:37:58.025Z,101073.64
2019-05-06T16:40:28.618Z,101073.06
2019-05-06T16:43:01.915Z,101065.42
2019-05-06T16:45:32.881Z,101065.20
2019-05-06T16:48:05.799Z,101071.09
2019-05-06T16:50:36.238Z,101072.62
2019-05-06T16:53:08.637Z,101066.96
2019-05-06T16:55:55.961Z,101063.54
2019-05-06T16:58:28.884Z,101064.71
2019-05-06T17:00:59.364Z,101059.44
2019-05-06T17:03:53.865Z,101070.13
2019-05-06T17:06:26.361Z,101076.51
2019-05-06T17:08:56.818Z,101072.03
2019-05-06T17:11:31.052Z,101073.38
2019-05-06T17:13:59.802Z,101082.57
2019-05-06T17:16:30.153Z,101067.56
2019-05-06T17:19:00.635Z,101073.00
2019-05-06T17:21:32.840Z,101071.39
2019-05-06T17:24:03.035Z,101075.12
2019-05-06T17:26:33.950Z,101077.19
2019-05-06T17:29:17.528Z,101077.66
2019-05-06T17:32:06.988Z,101075.94
2019-05-06T17:34:42.539Z,101073.85
2019-05-06T17:37:42.466Z,101086.80
2019-05-06T17:40:15.868Z,101082.97
2019-05-06T17:42:46.182Z,101086.98
2019-05-06T17:45:34.708Z,101092.27
2019-05-06T17:48:19.414Z,101092.91
2019-05-06T17:51:10.346Z,101091.48
2019-05-06T17:53:42.807Z,101106.70
2019-05-06T17:56:24.916Z,101097.00
2019-05-06T17:58:59.430Z,101106.33
2019-05-06T18:01:36.239Z,101107.09
2019-05-06T18:04:06.772Z,101109.80
2019-05-06T18:06:37.225Z,101113.50
2019-05-06T18:09:09.611Z,101103.25
2019-05-06T18:11:57.977Z,101104.93
2019-05-06T18:14:18.050Z,101105.51
2019-05-06T18:16:48.663Z,101115.58
2019-05-06T18:19:18.939Z,101103.84
2019-05-06T18:21:49.304Z,101110.29
2019-05-06T18:24:19.971Z,101111.09
2019-05-06T18:26:50.186Z,101110.86
2019-05-06T18:29:22.246Z,101107.35
2019-05-06T18:31:53.240Z,101113.20
2019-05-06T18:34:24.361Z,101114.77
2019-05-06T18:36:55.506Z,101121.94
2019-05-06T18:39:25.797Z,101128.09
2019-05-06T18:41:55.973Z,101125.77
2019-05-06T18:44:28.918Z,101122.28
2019-05-06T18:46:59.335Z,101124.97
2019-05-06T18:49:33.360Z,101127.28
2019-05-06T18:52:02.954Z,101128.30
2019-05-06T18:54:34.070Z,101129.73
2019-05-06T18:57:05.160Z,101129.52
2019-05-06T18:59:37.112Z,101128.51
2019-05-06T19:02:07.649Z,101140.09
2019-05-06T19:04:47.057Z,101132.28
2019-05-06T19:07:18.203Z,101139.10
2019-05-06T19:09:56.808Z,101137.05
2019-05-06T19:12:34.679Z,101141.30
2019-05-06T19:15:03.366Z,101141.05
2019-05-06T19:17:34.628Z,101146.92
2019-05-06T19:20:05.152Z,101151.08
2019-05-06T19:22:35.972Z,101151.63
2019-05-06T19:25:08.417Z,101157.97
2019-05-06T19:27:39.533Z,101157.16
2019-05-06T19:30:12.851Z,101160.46
2019-05-06T19:32:45.457Z,101158.27
2019-05-06T19:35:16.585Z,101165.55
2019-05-06T19:37:47.326Z,101164.52
2019-05-06T19:40:22.923Z,101167.34
2019-05-06T19:42:53.709Z,101165.84
2019-05-06T19:45:25.107Z,101170.55
2019-05-06T19:48:13.358Z,101167.55
2019-05-06T19:50:44.024Z,101166.47
2019-05-06T19:53:14.304Z,101168.55
2019-05-06T19:55:47.071Z,101173.09
2019-05-06T19:58:18.549Z,101165.36
2019-05-06T20:00:49.776Z,101173.92
2019-05-06T20:03:23.119Z,101176.19
2019-05-06T20:06:13.076Z,101181.66
2019-05-06T20:08:49.545Z,101180.10
2019-05-06T20:11:26.011Z,101175.85
2019-05-06T20:13:56.434Z,101181.33
2019-05-06T20:16:27.450Z,101179.34
2019-05-06T20:18:58.917Z,101181.77
2019-05-06T20:21:29.608Z,101173.56
2019-05-06T20:24:02.158Z,101181.65
2019-05-06T20:26:32.533Z,101180.87
2019-05-06T20:29:03.349Z,101179.38
2019-05-06T20:31:33.596Z,101178.25
2019-05-06T20:34:04.197Z,101169.20
2019-05-06T20:36:34.552Z,101174.58
2019-05-06T20:39:07.089Z,101171.12
2019-05-06T20:41:37.567Z,101165.88
2019-05-06T20:44:07.979Z,101166.89
2019-05-06T20:46:38.649Z,101167.98
2019-05-06T20:49:09.516Z,101172.47
2019-05-06T20:51:42.464Z,101170.83
2019-05-06T20:54:13.163Z,101170.67
2019-05-06T20:56:43.509Z,101177.42
2019-05-06T20:59:14.329Z,101171.88
2019-05-06T21:01:44.696Z,101175.53
2019-05-06T21:04:15.424Z,101180.09
2019-05-06T21:06:45.858Z,101180.78
2019-05-06T21:09:16.665Z,101174.70
2019-05-06T21:11:46.972Z,101172.31
2019-05-06T21:14:17.293Z,101182.13
2019-05-06T21:16:48.166Z,101170.27
2019-05-06T21:19:18.735Z,101174.25
2019-05-06T21:21:49.101Z,101174.17
2019-05-06T21:24:19.348Z,101176.05
2019-05-06T21:26:50.190Z,101179.34
2019-05-06T21:29:20.553Z,101184.33
2019-05-06T21:31:52.981Z,101176.05
2019-05-06T21:34:23.007Z,101182.87
2019-05-06T21:36:53.366Z,101179.43
2019-05-06T21:39:23.682Z,101190.11
2019-05-06T21:41:54.013Z,101178.04
2019-05-06T21:44:24.362Z,101180.83
2019-05-06T21:46:54.591Z,101179.65
2019-05-06T21:49:24.887Z,101180.11
2019-05-06T21:51:55.196Z,101177.65
2019-05-06T21:54:25.528Z,101173.39
2019-05-06T21:56:56.434Z,101176.57
2019-05-06T21:59:26.729Z,101175.89
2019-05-06T22:01:57.054Z,101176.03
2019-05-06T22:04:28.140Z,101170.41
2019-05-06T22:06:58.367Z,101170.91
2019-05-06T22:09:29.517Z,101168.33
2019-05-06T22:11:59.886Z,101168.33
2019-05-06T22:14:32.400Z,101164.89
2019-05-06T22:17:04.186Z,101165.57
2019-05-06T22:19:34.590Z,101168.72
2019-05-06T22:22:12.035Z,101165.81
2019-05-06T22:24:48.484Z,101162.16
2019-05-06T22:27:18.874Z,101164.55
2019-05-06T22:29:52.062Z,101160.71
2019-05-06T22:32:23.590Z,101168.30
2019-05-06T22:34:55.553Z,101165.78
2019-05-06T22:37:25.794Z,101162.41
2019-05-06T22:39:56.111Z,101160.73
2019-05-06T22:42:26.400Z,101161.72
2019-05-06T22:44:56.708Z,101161.86
2019-05-06T22:47:28.504Z,101168.41
2019-05-06T22:50:02.209Z,101163.11
2019-05-06T22:52:33.167Z,101163.11
2019-05-06T22:55:05.453Z,101162.19
2019-05-06T22:57:36.171Z,101178.53
2019-05-06T23:00:15.030Z,101175.56
2019-05-06T23:02:56.083Z,101180.06
2019-05-06T23:05:26.363Z,101180.55
2019-05-06T23:07:56.601Z,101174.37
2019-05-06T23:10:26.826Z,101172.19
2019-05-06T23:12:59.137Z,101170.73
2019-05-06T23:15:34.008Z,101165.37
2019-05-06T23:18:02.389Z,101162.85
2019-05-06T23:20:32.896Z,101171.98
2019-05-06T23:23:04.977Z,101166.82
2019-05-06T23:25:35.280Z,101169.94
2019-05-06T23:28:05.564Z,101176.55
2019-05-06T23:30:36.051Z,101172.68
2019-05-06T23:33:06.927Z,101169.17
2019-05-06T23:35:37.276Z,101175.80
2019-05-06T23:38:44.020Z,101171.42
2019-05-06T23:41:50.120Z,101168.84
2019-05-06T23:44:56.430Z,101167.19
2019-05-06T23:48:03.254Z,101170.87
2019-05-06T23:51:09.532Z,101179.39
2019-05-06T23:54:16.026Z,101170.83
2019-05-06T23:56:45.119Z,101174.00
2019-05-06T23:59:16.673Z,101179.03
